Terminal Aerodrome Forecast
Issued by NWS

Home | Current Version | Previous Version | Text Only | Print | Product List | Glossary On
Versions: 1 2 3 4 5 6 7 8 9 10 11 12 13 14 15
016
FTUS43 KAPX 212337
TAFMBL
TAF
KMBL 212337Z 2200/2224 17006KT P6SM FEW250
     FM220200 17005KT P6SM SCT250 WS020/19040KT
     FM220800 17006KT P6SM BKN050 WS020/19040KT
     FM221200 17005KT P6SM VCSH BKN050 WS020/19040KT
     FM221500 18010G17KT P6SM -SHRA BKN050
     FM221700 19010G17KT 5SM -SHRA BR OVC035
     FM222200 25005KT 3SM -SHRA BR OVC015=

USA.gov is the U.S. government's official web portal to all federal, state and local government web resources and services.